Time;durP1;ratioP1;P1;durP2;ratioP2;P2;SDS_P1;SDS_P2;PMS_P1;PMS_P2;Temp;Humidity;BMP_temperature;BMP_pressure;BME280_temperature;BME280_humidity;BME280_pressure;Samples;Min_cycle;Max_cycle;Signal;HPM_P1;HPM_P2
2021/01/01 00:00:24;;;;;;;126.47;49.80;;;-2.70;99.90;;;;;;5052573;28;20021;-78
2021/01/01 00:02:49;;;;;;;146.23;52.47;;;-2.60;99.90;;;;;;5034205;28;20049;-76
2021/01/01 00:05:15;;;;;;;131.77;51.90;;;-2.60;99.90;;;;;;5044785;28;20147;-78
2021/01/01 00:07:45;;;;;;;138.10;52.03;;;-2.60;99.90;;;;;;5033828;28;20034;-77
2021/01/01 00:10:11;;;;;;;175.75;51.30;;;-2.60;99.90;;;;;;5034232;28;20029;-77
2021/01/01 00:12:37;;;;;;;175.02;50.60;;;-2.70;99.90;;;;;;5020672;28;20108;-77
2021/01/01 00:15:06;;;;;;;165.15;49.00;;;-2.80;99.90;;;;;;5015023;28;20160;-78
2021/01/01 00:17:32;;;;;;;155.27;48.20;;;-2.90;99.90;;;;;;5021079;28;20018;-76
2021/01/01 00:19:58;;;;;;;181.68;52.95;;;-3.00;99.90;;;;;;5029799;28;20032;-77
2021/01/01 00:22:24;;;;;;;182.02;51.53;;;-3.00;99.90;;;;;;5046526;28;20425;-76
2021/01/01 00:24:49;;;;;;;171.15;51.17;;;-3.10;99.90;;;;;;5050964;28;20116;-77
2021/01/01 00:27:16;;;;;;;194.00;52.85;;;-3.10;99.90;;;;;;5052369;28;20104;-77
2021/01/01 00:29:42;;;;;;;215.27;57.42;;;-3.20;99.90;;;;;;5034588;28;20367;-77
2021/01/01 00:32:08;;;;;;;156.52;46.60;;;-3.20;99.90;;;;;;5034496;28;20025;-77
2021/01/01 00:34:34;;;;;;;157.85;53.63;;;-3.10;99.90;;;;;;5037259;28;20030;-77
2021/01/01 00:37:00;;;;;;;138.13;47.13;;;-3.00;99.90;;;;;;5029306;28;20465;-77
2021/01/01 00:39:26;;;;;;;129.98;48.88;;;-3.00;99.90;;;;;;5030897;28;20083;-77
2021/01/01 00:41:52;;;;;;;149.52;46.42;;;-3.00;99.90;;;;;;5037669;28;20418;-77
2021/01/01 00:44:17;;;;;;;162.15;51.33;;;-3.00;99.90;;;;;;5023076;28;20033;-77
2021/01/01 00:46:43;;;;;;;133.07;44.58;;;-3.00;99.90;;;;;;5024984;28;20079;-78
2021/01/01 00:49:08;;;;;;;146.25;47.47;;;-3.00;99.90;;;;;;5029641;28;20074;-77
2021/01/01 00:51:34;;;;;;;135.70;49.50;;;-2.90;99.90;;;;;;5027365;28;20013;-78
2021/01/01 00:54:02;;;;;;;137.50;47.40;;;-2.90;99.90;;;;;;5025763;28;20084;-77
2021/01/01 00:56:29;;;;;;;145.63;52.08;;;-2.80;99.90;;;;;;5029001;28;20348;-77
2021/01/01 00:58:56;;;;;;;156.95;55.38;;;-2.80;99.90;;;;;;5046842;28;20119;-76
2021/01/01 01:01:24;;;;;;;139.02;47.42;;;-2.80;99.90;;;;;;5045626;28;20017;-77
2021/01/01 01:03:51;;;;;;;134.52;49.90;;;-2.80;99.90;;;;;;5027400;28;20061;-77
2021/01/01 01:06:17;;;;;;;161.88;51.38;;;-2.80;99.90;;;;;;5052923;28;20074;-77
2021/01/01 01:08:42;;;;;;;153.90;51.85;;;-2.80;99.90;;;;;;5037756;28;20033;-77
2021/01/01 01:11:08;;;;;;;140.07;52.97;;;-2.80;99.90;;;;;;5037485;28;20025;-77
2021/01/01 01:13:34;;;;;;;185.55;53.30;;;-2.80;99.90;;;;;;5037644;28;20017;-77
2021/01/01 01:16:00;;;;;;;163.00;53.97;;;-2.90;99.90;;;;;;5055590;28;20028;-77
2021/01/01 01:18:25;;;;;;;222.55;55.95;;;-2.90;99.90;;;;;;5037623;28;20021;-77
2021/01/01 01:20:51;;;;;;;126.35;43.80;;;-2.90;99.90;;;;;;5037646;28;20021;-77
2021/01/01 01:23:18;;;;;;;159.02;50.38;;;-2.80;99.90;;;;;;5037470;28;20083;-76
2021/01/01 01:25:44;;;;;;;171.63;53.92;;;-2.80;99.90;;;;;;5037383;28;20478;-76
2021/01/01 01:28:10;;;;;;;148.52;48.95;;;-2.80;99.90;;;;;;5055288;28;20083;-77
2021/01/01 01:30:35;;;;;;;157.10;51.92;;;-2.80;99.90;;;;;;5037306;28;20029;-76
2021/01/01 01:33:01;;;;;;;223.95;56.13;;;-2.80;99.90;;;;;;5037369;28;20355;-76
2021/01/01 01:35:27;;;;;;;150.90;49.03;;;-2.80;99.90;;;;;;5037333;28;20108;-76
2021/01/01 01:37:52;;;;;;;150.65;51.78;;;-2.70;99.90;;;;;;5037150;28;20017;-77
2021/01/01 01:40:18;;;;;;;179.93;51.97;;;-2.80;99.90;;;;;;5037072;28;20125;-76
2021/01/01 01:42:44;;;;;;;138.55;46.90;;;-2.70;99.90;;;;;;5054882;28;20032;-76
2021/01/01 01:45:10;;;;;;;136.20;46.97;;;-2.70;99.90;;;;;;5037145;28;20116;-76
2021/01/01 01:47:37;;;;;;;164.00;53.83;;;-2.70;99.90;;;;;;5054881;28;20021;-76
2021/01/01 01:50:04;;;;;;;185.20;56.00;;;-2.70;99.90;;;;;;5036903;28;20020;-77
2021/01/01 01:52:30;;;;;;;177.43;51.53;;;-2.70;99.90;;;;;;5054716;28;20074;-77
2021/01/01 01:54:58;;;;;;;150.82;45.55;;;-2.70;99.90;;;;;;5036966;28;20025;-76
2021/01/01 01:57:27;;;;;;;132.27;45.08;;;-2.70;99.90;;;;;;5054216;28;20017;-77
2021/01/01 02:00:00;;;;;;;135.80;44.45;;;-2.80;99.90;;;;;;5035831;28;20029;-77
2021/01/01 02:02:27;;;;;;;190.18;49.33;;;-2.80;99.90;;;;;;5036839;28;20478;-76
2021/01/01 02:04:53;;;;;;;216.88;52.72;;;-2.90;99.90;;;;;;5035534;28;20086;-76
2021/01/01 02:07:19;;;;;;;143.35;42.83;;;-2.80;99.90;;;;;;5036664;28;20017;-77
2021/01/01 02:09:46;;;;;;;232.00;52.40;;;-2.90;99.90;;;;;;5054992;28;20047;-77
2021/01/01 02:12:12;;;;;;;158.68;45.80;;;-2.80;99.90;;;;;;5053182;28;20439;-76
2021/01/01 02:14:39;;;;;;;132.48;40.58;;;-2.80;99.90;;;;;;5036559;28;20021;-76
2021/01/01 02:17:05;;;;;;;149.48;47.38;;;-2.80;99.90;;;;;;5054431;28;20024;-76
2021/01/01 02:19:31;;;;;;;161.38;44.45;;;-2.80;99.90;;;;;;5036523;28;20024;-76
2021/01/01 02:22:00;;;;;;;184.00;51.35;;;-2.80;99.90;;;;;;5054334;28;20105;-76
2021/01/01 02:24:26;;;;;;;139.27;42.30;;;-2.80;99.90;;;;;;5054268;28;20029;-76
2021/01/01 02:26:51;;;;;;;115.70;42.08;;;-2.80;99.90;;;;;;5054149;28;20020;-77
2021/01/01 02:29:17;;;;;;;188.60;45.40;;;-2.80;99.90;;;;;;5036313;28;20047;-77
2021/01/01 02:31:43;;;;;;;119.18;42.75;;;-2.80;99.90;;;;;;5035900;28;20071;-77
2021/01/01 02:34:09;;;;;;;125.45;42.78;;;-2.80;99.90;;;;;;5054052;28;20112;-77
2021/01/01 02:36:34;;;;;;;125.97;42.53;;;-2.70;99.90;;;;;;5036020;28;20467;-77
2021/01/01 02:39:00;;;;;;;175.68;50.67;;;-2.70;99.90;;;;;;5036078;28;20024;-77
2021/01/01 02:41:25;;;;;;;155.25;48.15;;;-2.70;99.90;;;;;;5035738;28;20028;-77
2021/01/01 02:43:51;;;;;;;181.65;52.65;;;-2.80;99.90;;;;;;5053729;28;20175;-77
2021/01/01 02:46:17;;;;;;;146.77;49.42;;;-2.80;99.90;;;;;;5035963;28;20021;-77
2021/01/01 02:48:42;;;;;;;108.10;43.55;;;-2.80;99.90;;;;;;5035650;28;20021;-77
2021/01/01 02:51:08;;;;;;;143.20;45.63;;;-2.80;99.90;;;;;;5035931;28;20481;-77
2021/01/01 02:53:34;;;;;;;129.70;42.90;;;-2.80;99.90;;;;;;5053580;28;20020;-77
2021/01/01 02:55:59;;;;;;;122.95;41.67;;;-2.80;99.90;;;;;;5035735;28;20025;-77
2021/01/01 02:58:25;;;;;;;145.32;44.08;;;-2.80;99.90;;;;;;5035781;28;20685;-77
2021/01/01 03:00:50;;;;;;;211.98;49.45;;;-2.80;99.90;;;;;;5053598;28;20028;-77
2021/01/01 03:03:17;;;;;;;111.72;37.13;;;-2.80;99.90;;;;;;5035228;28;20036;-77
2021/01/01 03:05:43;;;;;;;139.32;42.22;;;-2.80;99.90;;;;;;5035391;28;20031;-78
2021/01/01 03:08:09;;;;;;;132.00;43.60;;;-2.70;99.90;;;;;;5035547;28;20039;-76
2021/01/01 03:10:35;;;;;;;111.57;41.22;;;-2.70;99.90;;;;;;5035615;28;20016;-77
2021/01/01 03:13:00;;;;;;;170.35;46.97;;;-2.70;99.90;;;;;;5035532;28;20474;-77
2021/01/01 03:15:26;;;;;;;188.75;51.03;;;-2.80;99.90;;;;;;5053011;28;20066;-77
2021/01/01 03:17:52;;;;;;;124.18;41.92;;;-2.80;99.90;;;;;;5053460;28;20505;-77
2021/01/01 03:20:17;;;;;;;113.20;38.38;;;-2.80;99.90;;;;;;5035386;28;20021;-77
2021/01/01 03:22:43;;;;;;;99.00;39.28;;;-2.80;99.90;;;;;;5035217;28;20028;-77
2021/01/01 03:25:09;;;;;;;135.43;45.88;;;-2.80;99.90;;;;;;5035291;28;20037;-77
2021/01/01 03:27:35;;;;;;;132.02;45.47;;;-2.70;99.90;;;;;;5035194;28;20029;-76
2021/01/01 03:30:01;;;;;;;185.43;44.25;;;-2.70;99.90;;;;;;5035220;28;20033;-76
2021/01/01 03:32:26;;;;;;;121.07;40.67;;;-2.70;99.90;;;;;;5034850;28;20463;-77
2021/01/01 03:34:56;;;;;;;120.47;40.38;;;-2.70;99.90;;;;;;5052372;28;20060;-77
2021/01/01 03:37:22;;;;;;;124.45;37.13;;;-2.80;99.90;;;;;;5034446;28;20055;-77
2021/01/01 03:39:47;;;;;;;161.40;39.00;;;-2.90;99.90;;;;;;5035139;28;20021;-76
2021/01/01 03:42:13;;;;;;;116.28;37.08;;;-2.90;99.90;;;;;;5033495;28;20439;-77
2021/01/01 03:44:39;;;;;;;158.80;40.63;;;-2.90;99.90;;;;;;5051588;28;20037;-77
2021/01/01 03:47:06;;;;;;;150.95;41.70;;;-2.90;99.90;;;;;;5034992;28;20478;-76
2021/01/01 03:49:31;;;;;;;126.28;38.95;;;-2.90;99.90;;;;;;5034908;28;20025;-77
2021/01/01 03:51:57;;;;;;;106.32;39.63;;;-2.90;99.90;;;;;;5034895;28;20128;-76
2021/01/01 03:54:23;;;;;;;128.93;45.45;;;-2.80;99.90;;;;;;5034640;28;20467;-78
2021/01/01 03:56:48;;;;;;;107.82;38.45;;;-2.90;99.90;;;;;;5052511;28;20032;-76
2021/01/01 03:59:14;;;;;;;135.55;46.95;;;-2.80;99.90;;;;;;5034920;28;20021;-77
2021/01/01 04:01:39;;;;;;;112.78;42.08;;;-2.80;99.90;;;;;;5034904;28;20033;-77
2021/01/01 04:04:05;;;;;;;126.00;41.47;;;-2.80;99.90;;;;;;5052469;28;20044;-76
2021/01/01 04:06:31;;;;;;;127.30;40.58;;;-2.80;99.90;;;;;;5052713;28;20497;-77
2021/01/01 04:08:56;;;;;;;124.47;42.25;;;-2.70;99.90;;;;;;5034035;28;20033;-77
2021/01/01 04:11:22;;;;;;;123.93;46.10;;;-2.70;99.90;;;;;;5052648;28;20196;-77
2021/01/01 04:13:47;;;;;;;117.10;39.92;;;-2.70;99.90;;;;;;5034660;28;20025;-77
2021/01/01 04:16:13;;;;;;;118.75;44.20;;;-2.70;99.90;;;;;;5034797;28;20021;-77
2021/01/01 04:18:39;;;;;;;131.07;41.33;;;-2.70;99.90;;;;;;5034627;28;20017;-77
2021/01/01 04:21:08;;;;;;;178.88;45.53;;;-2.70;99.90;;;;;;5052257;28;20021;-76
2021/01/01 04:23:36;;;;;;;151.75;47.13;;;-2.80;99.90;;;;;;5034476;28;20487;-76
2021/01/01 04:26:05;;;;;;;145.80;42.47;;;-2.80;99.90;;;;;;5034605;28;20464;-77
2021/01/01 04:28:31;;;;;;;133.23;43.03;;;-2.80;99.90;;;;;;5035979;28;20086;-77
2021/01/01 04:30:56;;;;;;;134.80;42.33;;;-2.90;99.90;;;;;;5044508;28;20029;-77
2021/01/01 04:33:22;;;;;;;143.73;48.40;;;-2.80;99.90;;;;;;5018663;28;20026;-77
2021/01/01 04:35:48;;;;;;;148.98;43.92;;;-2.90;99.90;;;;;;5018526;28;20075;-77
2021/01/01 04:38:13;;;;;;;176.27;48.45;;;-3.00;99.90;;;;;;5032164;28;20028;-77
2021/01/01 04:40:40;;;;;;;167.57;49.72;;;-3.00;99.90;;;;;;5038344;28;20025;-77
2021/01/01 04:43:06;;;;;;;143.70;45.70;;;-3.10;99.90;;;;;;5056037;28;20029;-77
2021/01/01 04:45:32;;;;;;;131.32;54.58;;;-3.10;99.90;;;;;;5037928;28;20021;-76
2021/01/01 04:47:58;;;;;;;115.85;42.78;;;-3.00;99.90;;;;;;5037393;28;20029;-77
2021/01/01 04:50:23;;;;;;;118.47;43.83;;;-2.90;99.90;;;;;;5056106;28;20364;-78
2021/01/01 04:52:49;;;;;;;130.40;48.85;;;-2.90;99.90;;;;;;5037974;28;20032;-77
2021/01/01 04:55:16;;;;;;;156.93;50.88;;;-2.90;99.90;;;;;;5038096;28;20115;-77
2021/01/01 04:57:42;;;;;;;131.88;47.30;;;-2.90;99.90;;;;;;5037960;28;20025;-77
2021/01/01 05:00:08;;;;;;;127.90;45.42;;;-2.90;99.90;;;;;;5055942;28;20356;-76
2021/01/01 05:02:34;;;;;;;109.13;41.47;;;-2.90;99.90;;;;;;5037839;28;20095;-77
2021/01/01 05:05:00;;;;;;;119.82;41.70;;;-2.90;99.90;;;;;;5037032;28;20139;-76
2021/01/01 05:07:28;;;;;;;115.40;42.45;;;-2.90;99.90;;;;;;5055078;28;20033;-77
2021/01/01 05:09:53;;;;;;;113.20;48.08;;;-2.90;99.90;;;;;;5055794;28;20055;-77
2021/01/01 05:12:19;;;;;;;143.10;56.53;;;-2.80;99.90;;;;;;5037743;28;20033;-77
2021/01/01 05:14:45;;;;;;;155.60;55.38;;;-2.80;99.90;;;;;;5037800;28;20389;-77
2021/01/01 05:17:11;;;;;;;129.02;49.40;;;-2.80;99.90;;;;;;5037448;28;20036;-77
2021/01/01 05:19:41;;;;;;;158.35;51.92;;;-2.80;99.90;;;;;;5037706;28;20017;-77
2021/01/01 05:22:11;;;;;;;102.85;44.72;;;-2.90;99.90;;;;;;5036785;28;20021;-77
2021/01/01 05:24:38;;;;;;;149.82;49.28;;;-2.90;99.90;;;;;;5037336;28;20107;-77
2021/01/01 05:27:16;;;;;;;146.98;47.10;;;-3.00;99.90;;;;;;5037441;28;20104;-76
2021/01/01 05:29:51;;;;;;;112.72;45.95;;;-3.10;99.90;;;;;;5037565;28;20035;-76
2021/01/01 05:32:21;;;;;;;120.15;46.20;;;-3.10;99.90;;;;;;5055409;28;20100;-76
2021/01/01 05:34:46;;;;;;;142.68;50.28;;;-3.10;99.90;;;;;;5055254;28;20025;-76
2021/01/01 05:37:25;;;;;;;109.90;46.33;;;-3.10;99.90;;;;;;5037337;28;20033;-76
2021/01/01 05:40:03;;;;;;;126.15;45.90;;;-3.00;99.90;;;;;;5054981;28;20387;-77
2021/01/01 05:42:29;;;;;;;112.07;44.40;;;-3.00;99.90;;;;;;5037248;28;20059;-78
2021/01/01 05:44:55;;;;;;;105.53;41.33;;;-3.00;99.90;;;;;;5055055;28;20064;-77
2021/01/01 05:47:22;;;;;;;115.28;41.83;;;-3.10;99.90;;;;;;5036788;28;20072;-77
2021/01/01 05:49:47;;;;;;;128.13;43.58;;;-3.20;99.90;;;;;;5037088;28;20048;-77
2021/01/01 05:52:16;;;;;;;116.15;43.70;;;-3.20;99.90;;;;;;5037019;28;20056;-77
2021/01/01 05:54:45;;;;;;;98.78;41.97;;;-3.30;99.90;;;;;;5036109;28;20446;-77
2021/01/01 05:57:12;;;;;;;100.97;41.67;;;-3.30;99.90;;;;;;5036873;28;20495;-77
2021/01/01 05:59:44;;;;;;;103.30;44.55;;;-3.40;99.90;;;;;;5054802;28;20024;-77
2021/01/01 06:02:10;;;;;;;108.32;38.97;;;-3.30;99.90;;;;;;5036910;28;20483;-76
2021/01/01 06:04:37;;;;;;;93.00;39.42;;;-3.40;99.90;;;;;;5036735;28;20083;-76
2021/01/01 06:07:08;;;;;;;106.53;38.38;;;-3.40;99.90;;;;;;5036670;28;20025;-77
2021/01/01 06:09:36;;;;;;;106.18;38.78;;;-3.40;99.90;;;;;;5037001;28;20052;-77
2021/01/01 06:12:05;;;;;;;98.10;33.85;;;-3.50;99.90;;;;;;5054518;28;20378;-77
2021/01/01 06:14:45;;;;;;;98.75;33.03;;;-3.60;99.90;;;;;;5036460;28;20024;-77
2021/01/01 06:17:11;;;;;;;122.15;36.50;;;-3.70;99.90;;;;;;5036355;28;20025;-77
2021/01/01 06:19:48;;;;;;;102.43;36.63;;;-3.80;99.90;;;;;;5036483;28;20062;-77
2021/01/01 06:22:16;;;;;;;113.90;42.42;;;-3.80;99.90;;;;;;5036257;28;20408;-77
2021/01/01 06:24:44;;;;;;;110.45;40.00;;;-3.70;99.90;;;;;;5054164;28;20037;-77
2021/01/01 06:27:12;;;;;;;97.03;33.33;;;-3.70;99.90;;;;;;5036332;28;20021;-77
2021/01/01 06:29:39;;;;;;;89.32;34.13;;;-3.70;99.90;;;;;;5036359;28;20029;-77
2021/01/01 06:32:05;;;;;;;75.40;31.50;;;-3.70;99.90;;;;;;5036278;28;20105;-77
2021/01/01 06:34:31;;;;;;;102.32;35.97;;;-3.60;99.90;;;;;;5035952;28;20486;-77
2021/01/01 06:36:57;;;;;;;83.45;32.42;;;-3.60;99.90;;;;;;5051983;28;20096;-77
2021/01/01 06:39:43;;;;;;;85.32;30.83;;;-3.60;99.90;;;;;;5052024;28;20017;-77
2021/01/01 06:42:10;;;;;;;74.95;29.25;;;-3.60;99.90;;;;;;5052115;28;20028;-76
2021/01/01 06:44:42;;;;;;;91.00;32.05;;;-3.50;99.90;;;;;;5034142;28;20067;-76
2021/01/01 06:47:28;;;;;;;91.30;29.83;;;-3.50;99.90;;;;;;5034531;28;20025;-76
2021/01/01 06:49:53;;;;;;;90.53;30.42;;;-3.50;99.90;;;;;;5052326;28;20028;-76
2021/01/01 06:52:19;;;;;;;86.90;30.75;;;-3.40;99.90;;;;;;5035020;28;20033;-76
2021/01/01 06:54:55;;;;;;;75.90;29.30;;;-3.50;99.90;;;;;;5035838;28;20018;-76
2021/01/01 06:57:27;;;;;;;72.82;30.38;;;-3.40;99.90;;;;;;5053762;28;20032;-76
2021/01/01 06:59:54;;;;;;;96.55;34.55;;;-3.40;99.90;;;;;;5051886;28;20021;-76
2021/01/01 07:02:21;;;;;;;108.57;35.78;;;-3.40;99.90;;;;;;5050616;28;20032;-77
2021/01/01 07:04:50;;;;;;;103.32;35.83;;;-3.40;99.90;;;;;;5035169;28;20132;-76
2021/01/01 07:07:44;;;;;;;89.47;35.40;;;-3.30;99.90;;;;;;5052025;28;20021;-76
2021/01/01 07:10:15;;;;;;;71.97;27.30;;;-3.30;99.90;;;;;;5034864;28;20025;-76
2021/01/01 07:12:41;;;;;;;74.68;28.48;;;-3.30;99.90;;;;;;5034713;28;20094;-77
2021/01/01 07:15:32;;;;;;;54.20;21.40;;;-3.30;99.90;;;;;;5031151;28;20108;-76
2021/01/01 07:17:58;;;;;;;60.88;22.98;;;-3.40;99.90;;;;;;5032648;28;20029;-76
2021/01/01 07:20:24;;;;;;;49.20;21.17;;;-3.40;99.90;;;;;;5032722;28;20562;-77
2021/01/01 07:22:58;;;;;;;66.55;28.90;;;-3.40;99.90;;;;;;5032400;28;20113;-77
2021/01/01 07:25:37;;;;;;;58.75;24.38;;;-3.40;99.90;;;;;;5014825;28;20078;-77
2021/01/01 07:28:07;;;;;;;56.28;19.80;;;-3.30;99.90;;;;;;5016239;28;20071;-76
2021/01/01 07:30:34;;;;;;;58.53;23.65;;;-3.40;99.90;;;;;;5032260;28;20045;-77
2021/01/01 07:33:01;;;;;;;56.22;21.90;;;-3.40;99.90;;;;;;5014591;28;20025;-77
2021/01/01 07:35:27;;;;;;;66.47;25.65;;;-3.40;99.90;;;;;;5014717;28;20094;-76
2021/01/01 07:37:54;;;;;;;51.75;23.05;;;-3.40;99.90;;;;;;5014583;28;20096;-77
2021/01/01 07:40:20;;;;;;;51.30;23.05;;;-3.30;99.90;;;;;;5014572;28;20157;-77
2021/01/01 07:42:51;;;;;;;53.67;24.25;;;-3.30;99.90;;;;;;5030726;28;20026;-77
2021/01/01 07:45:17;;;;;;;69.78;29.65;;;-3.20;99.90;;;;;;5014988;28;20044;-77
2021/01/01 07:47:46;;;;;;;73.32;30.17;;;-3.20;99.90;;;;;;5014401;28;20025;-77
2021/01/01 07:50:19;;;;;;;62.08;27.02;;;-3.30;99.90;;;;;;5014117;28;20021;-77
2021/01/01 07:52:45;;;;;;;124.32;49.83;;;-3.40;99.90;;;;;;5014347;28;20112;-76
2021/01/01 07:55:11;;;;;;;156.98;53.08;;;-3.40;99.90;;;;;;5032149;28;20068;-77
2021/01/01 07:57:39;;;;;;;340.10;93.60;;;-3.40;99.90;;;;;;5013994;28;20030;-77
2021/01/01 08:00:08;;;;;;;383.92;113.18;;;-3.50;99.90;;;;;;5032060;28;20043;-77
2021/01/01 08:02:35;;;;;;;107.88;36.15;;;-3.50;99.90;;;;;;5013996;28;20029;-77
2021/01/01 08:05:04;;;;;;;304.80;82.47;;;-3.50;99.90;;;;;;5050939;28;20047;-77
2021/01/01 08:10:02;;;;;;;222.85;68.85;;;-3.40;99.90;;;;;;5108852;27;20392;-76
2021/01/01 08:12:28;;;;;;;90.28;35.95;;;-3.40;99.90;;;;;;5107372;28;20554;-76
2021/01/01 08:14:55;;;;;;;338.90;103.20;;;-3.40;99.90;;;;;;5103067;28;20062;-76
2021/01/01 08:17:23;;;;;;;262.38;83.05;;;-3.30;99.90;;;;;;5102829;28;20560;-75
2021/01/01 08:19:49;;;;;;;265.35;71.60;;;-3.30;99.90;;;;;;5102886;28;20121;-76
2021/01/01 08:22:28;;;;;;;104.95;33.22;;;-3.30;99.90;;;;;;5103015;28;20020;-76
2021/01/01 08:24:56;;;;;;;138.00;40.50;;;-3.30;99.90;;;;;;5101591;28;20028;-76
2021/01/01 08:27:23;;;;;;;214.20;70.40;;;-3.30;99.90;;;;;;5102810;28;20023;-75
2021/01/01 08:29:50;;;;;;;260.23;84.28;;;-3.30;99.90;;;;;;5102970;28;20055;-75
2021/01/01 08:32:18;;;;;;;315.80;89.82;;;-3.20;99.90;;;;;;5101879;28;20444;-76
2021/01/01 08:34:49;;;;;;;136.18;41.25;;;-3.20;99.90;;;;;;5102729;28;20028;-75
2021/01/01 08:37:19;;;;;;;84.25;28.67;;;-3.20;99.90;;;;;;5102598;28;20015;-76
2021/01/01 08:39:46;;;;;;;54.75;22.65;;;-3.10;99.90;;;;;;5099944;28;20109;-75
2021/01/01 08:42:22;;;;;;;366.55;120.38;;;-3.10;99.90;;;;;;5101880;28;20397;-75
2021/01/01 08:44:48;;;;;;;294.40;91.68;;;-3.10;99.90;;;;;;5099530;28;20024;-75
2021/01/01 08:47:13;;;;;;;323.67;90.22;;;-3.10;99.90;;;;;;5099788;28;20863;-75
2021/01/01 08:49:39;;;;;;;318.67;91.80;;;-3.10;99.90;;;;;;5104853;28;20031;-77
2021/01/01 08:52:11;;;;;;;121.47;37.97;;;-3.00;99.90;;;;;;5106885;28;20428;-76
2021/01/01 08:54:37;;;;;;;;;;;-3.00;99.90;;;;;;5107811;28;20055;-76
2021/01/01 08:57:04;;;;;;;73.57;24.95;;;-2.90;99.90;;;;;;5107934;28;19944;-76
2021/01/01 08:59:30;;;;;;;51.80;21.77;;;-2.80;99.90;;;;;;5106859;28;20020;-76
2021/01/01 09:01:56;;;;;;;62.00;24.75;;;-2.80;99.90;;;;;;5107917;28;20106;-76
2021/01/01 09:04:29;;;;;;;196.07;54.97;;;-2.70;99.90;;;;;;5099983;28;20024;-76
2021/01/01 09:06:56;;;;;;;170.18;45.88;;;-2.70;99.90;;;;;;5098458;28;20034;-77
2021/01/01 09:09:27;;;;;;;101.10;34.47;;;-2.70;99.90;;;;;;5095502;28;20033;-77
2021/01/01 09:12:11;;;;;;;72.70;28.52;;;-2.50;99.90;;;;;;5094041;28;20482;-77
2021/01/01 09:14:44;;;;;;;254.52;77.45;;;-2.60;99.90;;;;;;5094261;28;20019;-78
2021/01/01 09:17:10;;;;;;;117.25;41.35;;;-2.50;99.90;;;;;;5097550;28;20484;-77
2021/01/01 09:19:36;;;;;;;76.30;28.00;;;-2.40;99.90;;;;;;5099219;28;20051;-77
2021/01/01 09:22:16;;;;;;;139.30;45.45;;;-2.40;99.90;;;;;;5090549;28;20016;-76
2021/01/01 09:24:43;;;;;;;75.82;28.50;;;-2.40;99.90;;;;;;5087753;28;20024;-76
2021/01/01 09:27:09;;;;;;;71.57;24.70;;;-2.30;99.90;;;;;;5093705;28;20470;-77
2021/01/01 09:29:35;;;;;;;66.40;28.95;;;-2.30;99.90;;;;;;5089215;28;20040;-76
2021/01/01 09:32:05;;;;;;;171.73;54.17;;;-2.20;99.90;;;;;;5089031;28;20032;-77
2021/01/01 09:34:31;;;;;;;103.97;35.50;;;-2.20;99.90;;;;;;5087787;28;20643;-77
2021/01/01 09:36:56;;;;;;;96.68;32.83;;;-2.20;99.90;;;;;;5083359;28;20039;-77
2021/01/01 09:39:22;;;;;;;153.57;53.00;;;-2.20;99.90;;;;;;5084811;28;20465;-77
2021/01/01 09:41:49;;;;;;;240.77;75.78;;;-2.20;99.90;;;;;;5069342;28;20552;-77
2021/01/01 09:44:15;;;;;;;54.92;24.13;;;-2.20;99.90;;;;;;5091294;28;20016;-77
2021/01/01 09:46:43;;;;;;;41.40;20.20;;;-2.30;99.90;;;;;;5089728;28;20115;-77
2021/01/01 09:49:10;;;;;;;71.03;25.65;;;-2.20;99.90;;;;;;5091879;28;20036;-77
2021/01/01 09:51:36;;;;;;;56.35;21.80;;;-2.10;99.90;;;;;;5090451;28;20462;-77
2021/01/01 09:54:02;;;;;;;55.63;23.02;;;-2.00;99.90;;;;;;5091376;28;20028;-77
2021/01/01 09:56:37;;;;;;;148.00;47.72;;;-1.90;99.90;;;;;;5091986;28;20472;-77
2021/01/01 09:59:04;;;;;;;60.72;24.45;;;-1.90;99.90;;;;;;5095130;28;20030;-77
2021/01/01 10:01:31;;;;;;;53.00;20.98;;;-1.80;99.90;;;;;;5090903;28;20028;-78
2021/01/01 10:03:57;;;;;;;46.70;19.73;;;-1.80;99.90;;;;;;5074874;28;20031;-77
2021/01/01 10:06:23;;;;;;;44.95;21.92;;;-1.70;99.90;;;;;;5082221;28;20023;-77
2021/01/01 10:08:49;;;;;;;53.58;25.75;;;-1.60;99.90;;;;;;5092436;28;20040;-77
2021/01/01 10:11:15;;;;;;;52.83;23.20;;;-1.60;99.90;;;;;;5093429;28;20107;-77
2021/01/01 10:13:42;;;;;;;58.25;25.13;;;-1.50;99.90;;;;;;5094604;28;20462;-77
2021/01/01 10:16:09;;;;;;;57.67;24.83;;;-1.50;99.90;;;;;;5085421;28;20104;-78
2021/01/01 10:18:35;;;;;;;57.47;24.80;;;-1.50;99.90;;;;;;5072983;28;20520;-78
2021/01/01 10:21:02;;;;;;;51.75;23.00;;;-1.50;99.90;;;;;;5072626;28;20012;-77
2021/01/01 10:23:28;;;;;;;44.47;19.65;;;-1.40;99.90;;;;;;5073009;28;20075;-77
2021/01/01 10:25:53;;;;;;;50.03;20.17;;;-1.40;99.90;;;;;;5071724;28;20478;-77
2021/01/01 10:28:19;;;;;;;52.28;24.80;;;-1.30;99.90;;;;;;5071675;28;20029;-77
2021/01/01 10:30:45;;;;;;;66.45;26.02;;;-1.30;99.90;;;;;;5071196;28;20089;-77
2021/01/01 10:33:11;;;;;;;44.63;20.38;;;-1.30;99.90;;;;;;5071833;28;20048;-77
2021/01/01 10:35:37;;;;;;;51.30;22.05;;;-1.30;99.90;;;;;;5077872;28;20032;-77
2021/01/01 10:38:04;;;;;;;52.15;20.42;;;-1.20;99.90;;;;;;5094877;28;20035;-77
2021/01/01 10:40:29;;;;;;;50.15;20.63;;;-1.20;99.90;;;;;;5093788;28;20054;-77
2021/01/01 10:42:57;;;;;;;53.25;22.80;;;-1.20;99.90;;;;;;5088622;28;20051;-77
2021/01/01 10:45:22;;;;;;;50.25;20.42;;;-1.10;99.90;;;;;;5081715;28;20508;-77
2021/01/01 10:47:48;;;;;;;41.55;18.83;;;-1.10;99.90;;;;;;5088810;28;20047;-77
2021/01/01 10:50:14;;;;;;;45.03;18.27;;;-1.10;99.90;;;;;;5088031;28;20050;-76
2021/01/01 10:52:40;;;;;;;48.10;19.92;;;-1.10;99.90;;;;;;5092011;28;20107;-76
2021/01/01 10:55:06;;;;;;;55.30;19.25;;;-1.10;99.90;;;;;;5092999;28;20081;-77
2021/01/01 10:57:32;;;;;;;52.10;21.05;;;-1.10;99.90;;;;;;5091181;28;20020;-77
2021/01/01 10:59:57;;;;;;;55.92;21.65;;;-1.10;99.90;;;;;;5091586;28;20031;-77
2021/01/01 11:02:23;;;;;;;60.03;21.00;;;-1.10;99.90;;;;;;5090212;28;20138;-77
2021/01/01 11:04:49;;;;;;;42.72;19.25;;;-1.10;99.90;;;;;;5088980;28;20024;-77
2021/01/01 11:07:14;;;;;;;73.07;21.65;;;-1.10;99.90;;;;;;5087016;28;20495;-77
2021/01/01 11:09:40;;;;;;;71.25;24.70;;;-1.10;99.90;;;;;;5086420;28;20474;-76
2021/01/01 11:12:07;;;;;;;59.20;21.67;;;-1.10;99.90;;;;;;5087222;28;20059;-76
2021/01/01 12:23:39;;;;;;;72.50;29.08;;;-0.40;99.90;;;;;;5079415;28;20032;-76
2021/01/01 12:26:05;;;;;;;62.63;26.08;;;-0.40;99.90;;;;;;5077126;28;20052;-75
2021/01/01 12:28:32;;;;;;;67.47;26.02;;;-0.40;99.90;;;;;;5082470;28;20028;-77
2021/01/01 12:31:00;;;;;;;65.20;26.20;;;-0.50;99.90;;;;;;5088005;28;20043;-77
2021/01/01 12:33:26;;;;;;;62.67;28.17;;;-0.50;99.90;;;;;;5089774;28;20020;-77
2021/01/01 12:35:52;;;;;;;82.13;32.38;;;-0.50;99.90;;;;;;5090726;28;20029;-76
2021/01/01 12:38:18;;;;;;;69.85;24.75;;;-0.50;99.90;;;;;;5090116;28;20487;-76
2021/01/01 12:40:44;;;;;;;66.28;28.60;;;-0.60;99.90;;;;;;5086840;28;20552;-77
2021/01/01 12:43:09;;;;;;;66.35;25.75;;;-0.50;99.90;;;;;;5087323;28;20056;-77
2021/01/01 12:45:35;;;;;;;65.10;25.05;;;-0.50;99.90;;;;;;5087312;28;20068;-76
2021/01/01 12:48:00;;;;;;;85.47;29.83;;;-0.50;99.90;;;;;;5086322;28;20054;-76
2021/01/01 12:50:26;;;;;;;83.78;32.00;;;-0.40;99.90;;;;;;5074117;28;20108;-76
2021/01/01 12:52:56;;;;;;;77.25;30.13;;;-0.40;99.90;;;;;;5077289;28;20029;-76
2021/01/01 12:55:23;;;;;;;64.22;26.73;;;-0.50;99.90;;;;;;5065713;28;20037;-77
2021/01/01 12:57:49;;;;;;;63.63;24.38;;;-0.50;99.90;;;;;;5070931;28;20111;-76
2021/01/01 13:00:15;;;;;;;84.03;27.25;;;-0.50;99.90;;;;;;5070550;28;20115;-76
2021/01/01 13:02:41;;;;;;;96.25;32.70;;;-0.50;99.90;;;;;;5071135;28;20611;-76
2021/01/01 13:05:07;;;;;;;75.90;25.23;;;-0.60;99.90;;;;;;5069843;28;20032;-76
2021/01/01 13:07:33;;;;;;;100.88;26.48;;;-0.70;99.90;;;;;;5070884;28;20032;-76
2021/01/01 13:09:59;;;;;;;79.60;25.00;;;-0.70;99.90;;;;;;5070802;28;20044;-77
2021/01/01 13:12:25;;;;;;;86.03;29.98;;;-0.70;99.90;;;;;;5071001;28;20093;-76
2021/01/01 13:14:51;;;;;;;69.93;26.50;;;-0.70;99.90;;;;;;5070921;28;20032;-76
2021/01/01 13:17:16;;;;;;;103.13;30.13;;;-0.60;99.90;;;;;;5072571;28;20020;-76
2021/01/01 13:19:42;;;;;;;79.60;27.10;;;-0.70;99.90;;;;;;5070638;28;20085;-76
2021/01/01 13:22:07;;;;;;;87.13;27.00;;;-0.70;99.90;;;;;;5069236;28;20031;-76
2021/01/01 13:24:33;;;;;;;92.20;28.35;;;-0.70;99.90;;;;;;5082265;28;20647;-76
2021/01/01 13:26:58;;;;;;;101.22;29.67;;;-0.80;99.90;;;;;;5090307;28;20408;-76
2021/01/01 13:29:24;;;;;;;111.75;32.85;;;-0.80;99.90;;;;;;5080694;28;20051;-76
2021/01/01 13:31:50;;;;;;;99.80;34.08;;;-0.80;99.90;;;;;;5078716;28;20044;-76